createdAt,value
2022-08-27T00:00:47.230Z,23.50
2022-08-27T00:01:47.281Z,23.51
2022-08-27T00:02:47.221Z,23.47
2022-08-27T00:03:47.271Z,23.40
2022-08-27T00:04:47.226Z,23.42
2022-08-27T00:05:47.227Z,23.42
2022-08-27T00:06:47.228Z,23.43
2022-08-27T00:07:47.230Z,23.43
2022-08-27T00:08:47.232Z,23.39
2022-08-27T00:09:47.237Z,23.40
2022-08-27T00:10:47.241Z,23.47
2022-08-27T00:11:47.240Z,23.50
2022-08-27T00:12:47.240Z,23.48
2022-08-27T00:13:47.245Z,23.53
2022-08-27T00:14:47.245Z,23.50
2022-08-27T00:15:47.248Z,23.50
2022-08-27T00:16:47.288Z,23.50
2022-08-27T00:17:47.255Z,23.48
2022-08-27T00:18:48.282Z,23.48
2022-08-27T00:19:47.258Z,23.51
2022-08-27T00:20:47.261Z,23.53
2022-08-27T00:21:47.261Z,23.50
2022-08-27T00:22:47.270Z,23.48
2022-08-27T00:23:47.261Z,23.53
2022-08-27T00:24:48.994Z,23.51
2022-08-27T00:25:47.270Z,23.50
2022-08-27T00:26:47.273Z,23.54
2022-08-27T00:27:47.272Z,23.48
2022-08-27T00:28:47.283Z,23.54
2022-08-27T00:29:47.279Z,23.57
2022-08-27T00:30:47.279Z,23.48
2022-08-27T00:31:51.894Z,23.54
2022-08-27T00:32:47.282Z,23.48
2022-08-27T00:33:47.285Z,23.51
2022-08-27T00:34:47.282Z,23.51
2022-08-27T00:35:47.293Z,23.55
2022-08-27T00:36:47.288Z,23.54
2022-08-27T00:37:47.298Z,23.55
2022-08-27T00:38:47.296Z,23.51
2022-08-27T00:39:47.298Z,23.60
2022-08-27T00:40:47.295Z,23.57
2022-08-27T00:41:47.301Z,23.60
2022-08-27T00:42:47.303Z,23.60
2022-08-27T00:43:47.305Z,23.55
2022-08-27T00:44:47.311Z,23.57
2022-08-27T00:45:47.344Z,23.55
2022-08-27T00:46:47.314Z,23.55
2022-08-27T00:47:47.311Z,23.61
2022-08-27T00:48:47.318Z,23.61
2022-08-27T00:49:47.318Z,23.61
2022-08-27T00:50:47.319Z,23.63
2022-08-27T00:51:47.324Z,23.63
2022-08-27T00:52:47.326Z,23.60
2022-08-27T00:53:47.325Z,23.51
2022-08-27T00:54:47.325Z,23.51
2022-08-27T00:55:47.332Z,23.40
2022-08-27T00:56:48.741Z,23.40
2022-08-27T00:57:47.335Z,23.47
2022-08-27T00:58:47.336Z,23.43
2022-08-27T00:59:47.340Z,23.40
2022-08-27T01:00:47.412Z,23.47
2022-08-27T01:01:47.397Z,23.38
2022-08-27T01:02:47.345Z,23.47
2022-08-27T01:03:47.348Z,23.51
2022-08-27T01:04:47.345Z,23.46
2022-08-27T01:05:47.356Z,23.54
2022-08-27T01:06:47.350Z,23.54
2022-08-27T01:07:47.356Z,23.61
2022-08-27T01:08:47.356Z,23.65
2022-08-27T01:09:47.359Z,23.66
2022-08-27T01:10:47.361Z,23.68
2022-08-27T01:11:47.364Z,23.70
2022-08-27T01:12:53.276Z,23.72
2022-08-27T01:14:00.253Z,23.66
2022-08-27T01:14:47.367Z,23.76
2022-08-27T01:15:47.374Z,23.73
2022-08-27T01:16:47.377Z,23.73
2022-08-27T01:17:47.371Z,23.76
2022-08-27T01:18:47.376Z,23.84
2022-08-27T01:19:47.385Z,23.83
2022-08-27T01:20:47.379Z,23.83
2022-08-27T01:21:47.388Z,23.80
2022-08-27T01:22:47.394Z,23.83
2022-08-27T01:23:47.391Z,23.84
2022-08-27T01:24:47.388Z,23.85
2022-08-27T01:25:47.391Z,23.83
2022-08-27T01:26:47.389Z,23.87
2022-08-27T01:27:47.398Z,23.80
2022-08-27T01:28:47.396Z,23.95
2022-08-27T01:29:47.399Z,23.84
2022-08-27T01:30:47.399Z,23.88
2022-08-27T01:31:47.475Z,23.91
2022-08-27T01:32:47.402Z,23.90
2022-08-27T01:33:47.405Z,23.98
2022-08-27T01:34:47.406Z,23.90
2022-08-27T01:35:47.421Z,23.94
2022-08-27T01:36:47.410Z,23.95
2022-08-27T01:37:47.658Z,23.95
2022-08-27T01:38:47.417Z,23.97
2022-08-27T01:39:47.422Z,23.94
2022-08-27T01:40:47.420Z,23.97
2022-08-27T01:41:47.422Z,24.00
2022-08-27T01:42:47.429Z,24.02
2022-08-27T01:43:47.427Z,24.03
2022-08-27T01:44:47.430Z,23.97
2022-08-27T01:45:47.440Z,24.03
2022-08-27T01:46:47.500Z,23.97
2022-08-27T01:47:47.447Z,24.06
2022-08-27T01:48:47.437Z,24.06
2022-08-27T01:49:47.443Z,24.06
2022-08-27T01:50:47.442Z,24.10
2022-08-27T01:51:47.445Z,24.16
2022-08-27T01:52:47.450Z,24.10
2022-08-27T01:53:47.448Z,24.10
2022-08-27T01:54:47.450Z,24.09
2022-08-27T01:55:48.238Z,24.12
2022-08-27T01:56:47.451Z,24.08
2022-08-27T01:57:47.454Z,24.08
2022-08-27T01:58:47.457Z,24.16
2022-08-27T01:59:47.465Z,24.10
2022-08-27T02:00:47.571Z,24.13
2022-08-27T02:01:47.519Z,24.10
2022-08-27T02:02:47.470Z,24.12
2022-08-27T02:03:47.470Z,24.08
2022-08-27T02:04:47.469Z,24.02
2022-08-27T02:05:47.474Z,24.08
2022-08-27T02:06:47.475Z,24.08
2022-08-27T02:07:47.482Z,24.13
2022-08-27T02:08:47.479Z,24.08
2022-08-27T02:09:47.482Z,24.13
2022-08-27T02:10:47.484Z,24.10
2022-08-27T02:11:47.498Z,24.15
2022-08-27T02:12:47.497Z,24.13
2022-08-27T02:13:47.490Z,24.13
2022-08-27T02:14:47.493Z,24.09
2022-08-27T02:15:47.570Z,24.10
2022-08-27T02:16:52.101Z,24.27
2022-08-27T02:17:47.498Z,24.22
2022-08-27T02:18:47.505Z,24.27
2022-08-27T02:19:47.508Z,24.25
2022-08-27T02:20:47.510Z,24.25
2022-08-27T02:21:47.507Z,24.24
2022-08-27T02:22:47.517Z,24.21
2022-08-27T02:23:47.511Z,24.24
2022-08-27T02:24:47.516Z,24.15
2022-08-27T02:25:47.513Z,24.12
2022-08-27T02:26:47.518Z,24.13
2022-08-27T02:27:47.521Z,24.06
2022-08-27T02:28:47.526Z,24.05
2022-08-27T02:29:47.527Z,24.10
2022-08-27T02:30:47.529Z,24.10
2022-08-27T02:31:47.622Z,24.12
2022-08-27T02:32:47.530Z,24.13
2022-08-27T02:33:47.533Z,24.15
2022-08-27T02:34:47.539Z,24.13
2022-08-27T02:35:47.538Z,24.10
2022-08-27T02:36:47.536Z,24.13
2022-08-27T02:37:47.542Z,24.16
2022-08-27T02:38:47.547Z,24.15
2022-08-27T02:39:47.546Z,24.00
2022-08-27T02:40:47.547Z,24.09
2022-08-27T02:41:47.551Z,23.95
2022-08-27T02:42:47.552Z,24.12
2022-08-27T02:43:47.555Z,24.13
2022-08-27T02:44:47.559Z,24.10
2022-08-27T02:45:47.561Z,24.13
2022-08-27T02:46:47.628Z,24.12
2022-08-27T02:47:47.565Z,24.15
2022-08-27T02:48:47.571Z,24.10
2022-08-27T02:49:47.568Z,24.09
2022-08-27T02:50:47.574Z,24.25
2022-08-27T02:51:47.580Z,24.21
2022-08-27T02:52:47.574Z,24.15
2022-08-27T02:53:47.575Z,24.18
2022-08-27T02:54:47.581Z,24.10
2022-08-27T02:55:47.584Z,24.12
2022-08-27T02:56:47.584Z,24.05
2022-08-27T02:57:47.587Z,24.18
2022-08-27T02:58:47.589Z,24.22
2022-08-27T02:59:47.594Z,24.24
2022-08-27T03:00:47.591Z,24.20
2022-08-27T03:01:47.696Z,24.25
2022-08-27T03:02:47.652Z,24.22
2022-08-27T03:03:47.606Z,24.10
2022-08-27T03:04:47.605Z,24.22
2022-08-27T03:05:47.605Z,24.24
2022-08-27T03:06:47.603Z,24.20
2022-08-27T03:07:47.608Z,24.27
2022-08-27T03:08:52.209Z,24.24
2022-08-27T03:09:47.612Z,24.15
2022-08-27T03:10:47.614Z,24.09
2022-08-27T03:11:47.618Z,24.10
2022-08-27T03:12:47.624Z,24.16
2022-08-27T03:13:47.622Z,24.09
2022-08-27T03:14:47.634Z,24.12
2022-08-27T03:15:47.665Z,24.12
2022-08-27T03:16:47.635Z,24.12
2022-08-27T03:17:47.633Z,24.15
2022-08-27T03:18:47.631Z,24.21
2022-08-27T03:19:47.636Z,24.12
2022-08-27T03:20:48.059Z,24.24
2022-08-27T03:21:54.324Z,24.28
2022-08-27T03:22:47.641Z,24.24
2022-08-27T03:23:47.644Z,24.09
2022-08-27T03:24:47.646Z,24.18
2022-08-27T03:25:47.652Z,24.24
2022-08-27T03:26:52.923Z,24.25
2022-08-27T03:27:47.653Z,24.30
2022-08-27T03:28:47.657Z,24.24
2022-08-27T03:29:47.662Z,24.25
2022-08-27T03:30:47.660Z,24.20
2022-08-27T03:31:47.774Z,24.28
2022-08-27T03:32:47.672Z,24.30
2022-08-27T03:33:47.668Z,24.28
2022-08-27T03:34:47.667Z,24.30
2022-08-27T03:35:51.551Z,24.30
2022-08-27T03:36:47.678Z,24.35
2022-08-27T03:37:47.690Z,24.30
2022-08-27T03:38:47.682Z,24.28
2022-08-27T03:39:47.685Z,24.31
2022-08-27T03:40:47.681Z,24.24
2022-08-27T03:41:54.996Z,24.28
2022-08-27T03:42:47.697Z,24.22
2022-08-27T03:43:47.697Z,24.22
2022-08-27T03:44:47.694Z,24.16
2022-08-27T03:46:00.954Z,24.15
2022-08-27T03:46:47.764Z,24.15
2022-08-27T03:47:47.712Z,24.12
2022-08-27T03:48:47.700Z,24.05
2022-08-27T03:49:47.705Z,24.10
2022-08-27T03:50:47.704Z,24.15
2022-08-27T03:51:47.710Z,24.09
2022-08-27T03:52:47.708Z,24.08
2022-08-27T03:53:47.711Z,24.16
2022-08-27T03:54:47.720Z,24.25
2022-08-27T03:55:47.714Z,24.13
2022-08-27T03:56:47.724Z,24.13
2022-08-27T03:57:47.725Z,24.22
2022-08-27T03:58:47.721Z,24.24
2022-08-27T03:59:47.727Z,24.37
2022-08-27T04:00:47.731Z,24.25
2022-08-27T04:01:47.804Z,24.30
2022-08-27T04:02:47.785Z,24.40
2022-08-27T04:03:47.740Z,24.28
2022-08-27T04:04:47.791Z,24.37
2022-08-27T04:05:47.949Z,24.30
2022-08-27T04:06:47.742Z,24.31
2022-08-27T04:07:47.747Z,24.30
2022-08-27T04:08:47.749Z,24.37
2022-08-27T04:09:47.751Z,24.30
2022-08-27T04:10:47.750Z,24.30
2022-08-27T04:11:47.753Z,24.28
2022-08-27T04:12:47.753Z,24.25
2022-08-27T04:13:47.757Z,24.25
2022-08-27T04:14:47.761Z,24.27
2022-08-27T04:15:47.799Z,24.34
2022-08-27T04:16:47.768Z,24.24
2022-08-27T04:17:47.766Z,24.30
2022-08-27T04:18:47.771Z,24.39
2022-08-27T04:19:47.774Z,24.25
2022-08-27T04:20:47.774Z,24.27
2022-08-27T04:21:47.777Z,24.25
2022-08-27T04:22:47.780Z,24.37
2022-08-27T04:23:47.782Z,24.27
2022-08-27T04:24:47.783Z,24.28
2022-08-27T04:25:47.789Z,24.24
2022-08-27T04:26:47.793Z,24.27
2022-08-27T04:27:47.795Z,24.30
2022-08-27T04:28:48.640Z,24.22
2022-08-27T04:29:47.799Z,24.30
2022-08-27T04:30:47.846Z,24.35
2022-08-27T04:31:47.800Z,24.28
2022-08-27T04:32:47.802Z,24.31
2022-08-27T04:33:50.910Z,24.27
2022-08-27T04:34:47.808Z,24.30
2022-08-27T04:35:47.810Z,24.30
2022-08-27T04:36:47.810Z,24.25
2022-08-27T04:37:47.814Z,24.37
2022-08-27T04:38:47.815Z,24.28
2022-08-27T04:39:50.317Z,24.28
2022-08-27T04:40:47.818Z,24.27
2022-08-27T04:41:47.820Z,24.32
2022-08-27T04:42:47.826Z,24.35
2022-08-27T04:43:47.828Z,24.35
2022-08-27T04:44:47.827Z,24.24
2022-08-27T04:45:47.830Z,24.31
2022-08-27T04:46:49.335Z,24.27
2022-08-27T04:47:47.835Z,24.39
2022-08-27T04:48:47.839Z,24.31
2022-08-27T04:49:47.841Z,24.37
2022-08-27T04:50:47.844Z,24.39
2022-08-27T04:51:48.203Z,24.37
2022-08-27T04:52:47.847Z,24.25
2022-08-27T04:53:47.846Z,24.34
2022-08-27T04:54:47.851Z,24.25
2022-08-27T04:55:47.857Z,24.27
2022-08-27T04:56:47.857Z,24.25
2022-08-27T04:57:47.860Z,24.34
2022-08-27T04:58:47.864Z,24.30
2022-08-27T04:59:47.867Z,24.37
2022-08-27T05:00:47.873Z,24.34
2022-08-27T05:01:47.904Z,24.45
2022-08-27T05:02:47.871Z,24.34
2022-08-27T05:03:47.874Z,24.37
2022-08-27T05:04:47.903Z,24.39
2022-08-27T05:05:47.877Z,24.37
2022-08-27T05:06:47.880Z,24.47
2022-08-27T05:07:47.882Z,24.32
2022-08-27T05:08:47.885Z,24.35
2022-08-27T05:09:47.889Z,24.42
2022-08-27T05:10:47.899Z,24.31
2022-08-27T05:11:47.893Z,24.34
2022-08-27T05:12:47.895Z,24.40
2022-08-27T05:13:47.898Z,24.43
2022-08-27T05:14:47.901Z,24.34
2022-08-27T05:15:47.998Z,24.37
2022-08-27T05:16:47.903Z,24.34
2022-08-27T05:17:47.911Z,24.43
2022-08-27T05:18:48.645Z,24.34
2022-08-27T05:19:47.912Z,24.37
2022-08-27T05:20:47.910Z,24.27
2022-08-27T05:21:47.915Z,24.30
2022-08-27T05:22:47.922Z,24.32
2022-08-27T05:23:47.920Z,24.25
2022-08-27T05:24:50.448Z,24.32
2022-08-27T05:25:47.921Z,24.28
2022-08-27T05:26:47.924Z,24.35
2022-08-27T05:27:47.932Z,24.24
2022-08-27T05:28:47.929Z,24.21
2022-08-27T05:29:47.931Z,24.27
2022-08-27T05:30:52.521Z,24.31
2022-08-27T05:31:47.941Z,24.35
2022-08-27T05:32:47.940Z,24.32
2022-08-27T05:33:47.938Z,24.35
2022-08-27T05:34:47.946Z,24.34
2022-08-27T05:35:47.947Z,24.32
2022-08-27T05:36:49.125Z,24.27
2022-08-27T05:37:47.951Z,24.35
2022-08-27T05:38:47.956Z,24.27
2022-08-27T05:39:47.954Z,24.34
2022-08-27T05:40:47.960Z,24.32
2022-08-27T05:41:47.957Z,24.34
2022-08-27T05:42:50.216Z,24.32
2022-08-27T05:43:50.557Z,24.35
2022-08-27T05:44:47.968Z,24.40
2022-08-27T05:45:47.970Z,24.31
2022-08-27T05:46:47.975Z,24.40
2022-08-27T05:47:47.973Z,24.40
2022-08-27T05:48:47.980Z,24.32
2022-08-27T05:49:47.981Z,24.39
2022-08-27T05:50:47.980Z,24.43
2022-08-27T05:51:47.989Z,24.43
2022-08-27T05:52:47.990Z,24.47
2022-08-27T05:53:47.991Z,24.43
2022-08-27T05:54:47.992Z,24.47
2022-08-27T05:55:47.997Z,24.49
2022-08-27T05:56:47.997Z,24.43
2022-08-27T05:57:48.000Z,24.35
2022-08-27T05:58:48.005Z,24.45
2022-08-27T05:59:48.004Z,24.47
2022-08-27T06:00:48.006Z,24.50
2022-08-27T06:01:48.017Z,24.46
2022-08-27T06:02:48.090Z,24.50
2022-08-27T06:03:48.024Z,24.55
2022-08-27T06:04:48.066Z,24.57
2022-08-27T06:05:48.022Z,24.57
2022-08-27T06:06:48.023Z,24.57
2022-08-27T06:07:48.025Z,24.62
2022-08-27T06:08:48.025Z,24.62
2022-08-27T06:09:48.025Z,24.64
2022-08-27T06:10:48.039Z,24.67
2022-08-27T06:11:48.032Z,24.67
2022-08-27T06:12:48.038Z,24.65
2022-08-27T06:13:48.039Z,24.67
2022-08-27T06:14:48.042Z,24.64
2022-08-27T06:15:48.118Z,24.65
2022-08-27T06:16:48.046Z,24.65
2022-08-27T06:17:48.047Z,24.61
2022-08-27T06:18:48.055Z,24.68
2022-08-27T06:19:48.052Z,24.80
2022-08-27T06:20:48.059Z,24.80
2022-08-27T06:22:00.934Z,24.83
2022-08-27T06:22:48.061Z,24.78
2022-08-27T06:23:48.063Z,24.78
2022-08-27T06:24:48.064Z,24.83
2022-08-27T06:25:48.070Z,24.83
2022-08-27T06:26:48.069Z,24.81
2022-08-27T06:27:48.079Z,24.78
2022-08-27T06:28:48.072Z,24.73
2022-08-27T06:29:48.077Z,24.80
2022-08-27T06:30:48.134Z,24.81
2022-08-27T06:31:48.084Z,24.83
2022-08-27T06:32:48.101Z,24.83
2022-08-27T06:33:48.087Z,24.88
2022-08-27T06:34:48.093Z,24.78
2022-08-27T06:35:48.095Z,24.83
2022-08-27T06:36:48.100Z,24.84
2022-08-27T06:37:48.096Z,24.81
2022-08-27T06:38:49.502Z,24.78
2022-08-27T06:39:48.101Z,24.78
2022-08-27T06:40:48.108Z,24.81
2022-08-27T06:41:48.107Z,24.84
2022-08-27T06:42:48.115Z,24.87
2022-08-27T06:43:48.114Z,24.87
2022-08-27T06:44:48.118Z,24.95
2022-08-27T06:45:48.120Z,24.90
2022-08-27T06:46:48.119Z,24.88
2022-08-27T06:47:48.123Z,25.05
2022-08-27T06:48:48.129Z,25.03
2022-08-27T06:49:48.128Z,25.10
2022-08-27T06:50:48.126Z,25.09
2022-08-27T06:51:48.135Z,25.10
2022-08-27T06:52:48.136Z,25.17
2022-08-27T06:53:48.143Z,25.09
2022-08-27T06:54:48.145Z,25.08
2022-08-27T06:55:48.144Z,25.10
2022-08-27T06:56:48.150Z,25.02
2022-08-27T06:57:48.153Z,24.98
2022-08-27T06:58:48.157Z,25.02
2022-08-27T06:59:48.159Z,25.00
2022-08-27T07:00:49.045Z,24.95
2022-08-27T07:01:48.250Z,24.91
2022-08-27T07:02:48.233Z,24.90
2022-08-27T07:03:49.274Z,25.00
2022-08-27T07:04:48.171Z,24.93
2022-08-27T07:05:48.168Z,24.95
2022-08-27T07:06:48.174Z,24.96
2022-08-27T07:07:48.908Z,24.96
2022-08-27T07:08:53.237Z,24.95
2022-08-27T07:09:48.191Z,24.88
2022-08-27T07:10:48.186Z,24.91
2022-08-27T07:11:48.191Z,24.95
2022-08-27T07:12:48.193Z,24.98
2022-08-27T07:13:48.197Z,24.98
2022-08-27T07:14:48.198Z,24.96
2022-08-27T07:15:48.293Z,24.91
2022-08-27T07:16:48.351Z,24.93
2022-08-27T07:17:48.202Z,24.99
2022-08-27T07:18:48.207Z,24.99
2022-08-27T07:19:48.212Z,24.93
2022-08-27T07:20:48.215Z,24.99
2022-08-27T07:21:48.215Z,24.99
2022-08-27T07:22:48.217Z,24.96
2022-08-27T07:23:48.223Z,24.99
2022-08-27T07:24:48.223Z,24.99
2022-08-27T07:25:48.226Z,25.14
2022-08-27T07:26:48.230Z,24.98
2022-08-27T07:27:48.228Z,25.02
2022-08-27T07:28:48.236Z,24.99
2022-08-27T07:29:48.237Z,25.02
2022-08-27T07:30:48.323Z,25.02
2022-08-27T07:31:48.244Z,25.10
2022-08-27T07:32:48.241Z,25.00
2022-08-27T07:33:51.374Z,25.09
2022-08-27T07:34:48.250Z,25.06
2022-08-27T07:35:48.250Z,25.14
2022-08-27T07:36:48.250Z,25.13
2022-08-27T07:37:48.263Z,25.21
2022-08-27T07:38:55.560Z,25.15
2022-08-27T07:39:48.264Z,25.20
2022-08-27T07:40:48.263Z,25.15
2022-08-27T07:41:48.270Z,25.20
2022-08-27T07:42:48.277Z,25.20
2022-08-27T07:43:48.281Z,25.24
2022-08-27T07:44:48.276Z,25.24
2022-08-27T07:45:48.355Z,25.24
2022-08-27T07:46:49.467Z,25.23
2022-08-27T07:47:48.290Z,25.27
2022-08-27T07:48:48.287Z,25.21
2022-08-27T07:49:48.683Z,25.28
2022-08-27T07:50:48.296Z,25.18
2022-08-27T07:51:48.299Z,25.18
2022-08-27T07:52:48.299Z,25.24
2022-08-27T07:53:48.303Z,25.21
2022-08-27T07:54:48.307Z,25.25
2022-08-27T07:55:48.308Z,25.27
2022-08-27T07:56:55.821Z,25.35
2022-08-27T07:57:48.316Z,25.35
2022-08-27T07:58:48.318Z,25.36
2022-08-27T07:59:48.320Z,25.30
2022-08-27T08:00:48.323Z,25.43
2022-08-27T08:01:48.388Z,25.38
2022-08-27T08:02:48.346Z,25.45
2022-08-27T08:03:48.331Z,25.43
2022-08-27T08:04:48.332Z,25.46
2022-08-27T08:05:48.345Z,25.57
2022-08-27T08:06:48.340Z,25.46
2022-08-27T08:07:48.346Z,25.45
2022-08-27T08:08:48.349Z,25.55
2022-08-27T08:09:48.348Z,25.54
2022-08-27T08:10:48.352Z,25.50
2022-08-27T08:11:48.354Z,25.50
2022-08-27T08:12:48.356Z,25.47
2022-08-27T08:13:48.362Z,25.51
2022-08-27T08:14:48.365Z,25.50
2022-08-27T08:15:48.372Z,25.58
2022-08-27T08:16:48.443Z,25.47
2022-08-27T08:17:48.378Z,25.57
2022-08-27T08:18:48.373Z,25.54
2022-08-27T08:20:08.596Z,25.46
2022-08-27T08:20:57.956Z,25.50
2022-08-27T08:21:48.379Z,25.50
2022-08-27T08:22:48.386Z,25.43
2022-08-27T08:23:48.388Z,25.54
2022-08-27T08:24:48.394Z,25.57
2022-08-27T08:25:48.399Z,25.52
2022-08-27T08:26:48.396Z,25.51
2022-08-27T08:27:48.406Z,25.64
2022-08-27T08:28:48.401Z,25.60
2022-08-27T08:29:48.405Z,25.60
2022-08-27T08:30:48.453Z,25.57
2022-08-27T08:31:49.991Z,25.52
2022-08-27T08:32:48.418Z,25.61
2022-08-27T08:33:48.412Z,25.42
2022-08-27T08:34:48.429Z,25.57
2022-08-27T08:35:48.428Z,25.58
2022-08-27T08:36:54.028Z,25.60
2022-08-27T08:37:48.435Z,25.61
2022-08-27T08:38:48.436Z,25.70
2022-08-27T08:39:48.441Z,25.70
2022-08-27T08:40:48.442Z,25.70
2022-08-27T08:41:48.444Z,25.79
2022-08-27T08:42:50.579Z,25.90
2022-08-27T08:43:48.449Z,25.91
2022-08-27T08:44:48.459Z,25.95
2022-08-27T08:45:48.546Z,25.92
2022-08-27T08:46:48.458Z,26.01
2022-08-27T08:47:48.463Z,25.99
2022-08-27T08:48:48.471Z,25.98
2022-08-27T08:49:48.466Z,25.94
2022-08-27T08:50:48.475Z,25.99
2022-08-27T08:51:48.476Z,25.98
2022-08-27T08:52:48.482Z,25.97
2022-08-27T08:53:48.482Z,25.94
2022-08-27T08:54:48.490Z,25.98
2022-08-27T08:55:48.494Z,25.92
2022-08-27T08:56:52.986Z,26.01
2022-08-27T08:57:48.502Z,25.91
2022-08-27T08:58:48.501Z,25.97
2022-08-27T08:59:48.504Z,25.91
2022-08-27T09:00:48.507Z,25.98
2022-08-27T09:01:48.558Z,26.12
2022-08-27T09:02:48.517Z,26.10
2022-08-27T09:03:48.578Z,26.05
2022-08-27T09:04:48.513Z,26.23
2022-08-27T09:05:48.527Z,26.29
2022-08-27T09:06:48.536Z,26.29
2022-08-27T09:07:48.536Z,26.29
2022-08-27T09:08:48.906Z,26.07
2022-08-27T09:09:48.544Z,26.06
2022-08-27T09:10:48.540Z,26.07
2022-08-27T09:11:48.544Z,25.92
2022-08-27T09:12:48.548Z,26.01
2022-08-27T09:13:48.560Z,26.05
2022-08-27T09:14:48.559Z,26.06
2022-08-27T09:15:48.562Z,26.09
2022-08-27T09:16:48.617Z,26.17
2022-08-27T09:17:48.567Z,26.23
2022-08-27T09:18:52.462Z,26.25
2022-08-27T09:19:48.575Z,26.28
2022-08-27T09:20:48.584Z,26.32
2022-08-27T09:21:48.587Z,26.36
2022-08-27T09:22:48.585Z,26.43
2022-08-27T09:23:48.590Z,26.40
2022-08-27T09:24:48.595Z,26.44
2022-08-27T09:25:48.604Z,26.52
2022-08-27T09:26:48.601Z,26.47
2022-08-27T09:27:48.612Z,26.48
2022-08-27T09:28:48.607Z,26.40
2022-08-27T09:29:48.612Z,26.48
2022-08-27T09:30:48.791Z,26.62
2022-08-27T09:31:48.620Z,26.60
2022-08-27T09:32:48.624Z,26.67
2022-08-27T09:33:56.172Z,26.58
2022-08-27T09:34:48.632Z,26.58
2022-08-27T09:35:48.638Z,26.67
2022-08-27T09:36:48.636Z,26.62
2022-08-27T09:37:48.647Z,26.63
2022-08-27T09:38:48.891Z,26.60
2022-08-27T09:39:48.655Z,26.55
2022-08-27T09:40:48.715Z,26.63
2022-08-27T09:41:48.658Z,26.62
2022-08-27T09:42:49.753Z,26.65
2022-08-27T09:43:48.669Z,26.54
2022-08-27T09:44:53.452Z,26.60
2022-08-27T09:45:48.731Z,26.52
2022-08-27T09:46:48.678Z,26.43
2022-08-27T09:47:48.684Z,26.50
2022-08-27T09:48:48.685Z,26.52
2022-08-27T09:49:48.689Z,26.50
2022-08-27T09:50:48.698Z,26.44
2022-08-27T09:51:48.700Z,26.44
2022-08-27T09:52:48.704Z,26.35
2022-08-27T09:53:48.703Z,26.29
2022-08-27T09:54:48.706Z,26.40
2022-08-27T09:55:48.714Z,26.45
2022-08-27T09:56:48.719Z,26.44
2022-08-27T09:57:48.721Z,26.47
2022-08-27T09:58:48.723Z,26.57
2022-08-27T09:59:48.730Z,26.60
2022-08-27T10:00:48.771Z,26.70
2022-08-27T10:01:48.740Z,26.75
2022-08-27T10:02:48.746Z,26.62
2022-08-27T10:03:48.811Z,26.77
2022-08-27T10:04:50.535Z,26.65
2022-08-27T10:05:48.755Z,26.65
2022-08-27T10:06:48.758Z,26.69
2022-08-27T10:07:48.760Z,26.76
2022-08-27T10:08:48.764Z,26.81
2022-08-27T10:09:48.767Z,26.88
2022-08-27T10:10:48.774Z,26.88
2022-08-27T10:11:48.781Z,26.91
2022-08-27T10:12:48.784Z,26.94
2022-08-27T10:13:48.788Z,26.97
2022-08-27T10:14:48.794Z,27.02
2022-08-27T10:15:49.619Z,26.95
2022-08-27T10:16:48.823Z,26.95
2022-08-27T10:17:48.804Z,26.99
2022-08-27T10:18:48.809Z,27.06
2022-08-27T10:19:49.148Z,27.04
2022-08-27T10:20:48.815Z,27.07
2022-08-27T10:21:48.827Z,27.07
2022-08-27T10:22:48.825Z,26.88
2022-08-27T10:23:48.825Z,26.70
2022-08-27T10:24:48.829Z,26.66
2022-08-27T10:25:48.833Z,26.63
2022-08-27T10:26:48.839Z,26.69
2022-08-27T10:27:48.843Z,26.84
2022-08-27T10:28:48.849Z,26.85
2022-08-27T10:29:48.858Z,26.95
2022-08-27T10:30:48.856Z,26.91
2022-08-27T10:31:48.912Z,27.04
2022-08-27T10:32:52.127Z,27.14
2022-08-27T10:33:48.870Z,27.02
2022-08-27T10:34:48.875Z,27.04
2022-08-27T10:35:54.621Z,26.94
2022-08-27T10:36:48.885Z,26.91
2022-08-27T10:37:48.890Z,26.95
2022-08-27T10:38:48.893Z,26.84
2022-08-27T10:39:48.900Z,26.73
2022-08-27T10:40:48.899Z,26.88
2022-08-27T10:41:48.903Z,26.88
2022-08-27T10:42:48.908Z,26.77
2022-08-27T10:43:48.914Z,26.66
2022-08-27T10:44:48.913Z,26.67
2022-08-27T10:45:48.939Z,26.69
2022-08-27T10:46:50.637Z,26.66
2022-08-27T10:47:48.931Z,26.65
2022-08-27T10:48:48.936Z,26.63
2022-08-27T10:49:48.942Z,26.58
2022-08-27T10:50:48.942Z,26.54
2022-08-27T10:51:48.946Z,26.62
2022-08-27T10:52:51.729Z,26.51
2022-08-27T10:53:48.956Z,26.60
2022-08-27T10:54:48.960Z,26.54
2022-08-27T10:55:48.967Z,26.65
2022-08-27T10:56:48.972Z,26.76
2022-08-27T10:57:57.672Z,26.76
2022-08-27T10:58:48.977Z,26.82
2022-08-27T10:59:48.978Z,26.76
2022-08-27T11:00:49.040Z,26.97
2022-08-27T11:01:49.020Z,27.04
2022-08-27T11:02:48.991Z,27.10
2022-08-27T11:03:48.998Z,27.27
2022-08-27T11:04:48.996Z,27.25
2022-08-27T11:05:49.002Z,27.36
2022-08-27T11:06:49.011Z,27.51
2022-08-27T11:07:49.009Z,27.50
2022-08-27T11:08:49.016Z,27.44
2022-08-27T11:09:51.596Z,27.57
2022-08-27T11:10:49.028Z,27.60
2022-08-27T11:12:13.384Z,27.63
2022-08-27T11:12:49.034Z,27.63
2022-08-27T11:13:49.040Z,27.67
2022-08-27T11:14:49.046Z,27.65
2022-08-27T11:15:49.045Z,27.67
2022-08-27T11:16:49.087Z,27.85
2022-08-27T11:17:49.059Z,27.90
2022-08-27T11:18:49.059Z,27.93
2022-08-27T11:19:49.067Z,27.92
2022-08-27T11:20:49.071Z,27.97
2022-08-27T11:21:49.077Z,27.88
2022-08-27T11:22:49.080Z,27.90
2022-08-27T11:23:49.081Z,28.00
2022-08-27T11:24:49.087Z,27.94
2022-08-27T11:25:49.095Z,27.92
2022-08-27T11:26:49.104Z,27.93
2022-08-27T11:27:49.112Z,27.94
2022-08-27T11:28:49.109Z,27.87
2022-08-27T11:29:49.110Z,27.88
2022-08-27T11:30:49.134Z,27.79
2022-08-27T11:31:49.162Z,27.87
2022-08-27T11:32:49.125Z,27.90
2022-08-27T11:33:49.131Z,27.90
2022-08-27T11:34:49.136Z,28.02
2022-08-27T11:35:49.139Z,28.00
2022-08-27T11:36:54.173Z,28.06
2022-08-27T11:37:49.151Z,28.03
2022-08-27T11:38:49.150Z,28.02
2022-08-27T11:39:51.829Z,28.12
2022-08-27T11:40:49.164Z,28.12
2022-08-27T11:41:49.169Z,28.09
2022-08-27T11:42:49.172Z,28.06
2022-08-27T11:43:49.182Z,28.04
2022-08-27T11:44:49.184Z,28.06
2022-08-27T11:45:49.185Z,28.11
2022-08-27T11:46:49.258Z,28.19
2022-08-27T11:47:49.195Z,28.19
2022-08-27T11:48:49.199Z,28.17
2022-08-27T11:49:49.210Z,28.36
2022-08-27T11:50:49.210Z,28.36
2022-08-27T11:51:49.222Z,28.34
2022-08-27T11:52:49.223Z,28.29
2022-08-27T11:53:52.059Z,28.34
2022-08-27T11:54:49.230Z,28.30
2022-08-27T11:55:49.235Z,28.27
2022-08-27T11:56:49.238Z,28.29
2022-08-27T11:57:49.253Z,28.27
2022-08-27T11:58:53.214Z,28.27
2022-08-27T11:59:49.259Z,28.14
2022-08-27T12:00:49.259Z,28.04
2022-08-27T12:01:49.267Z,27.97
2022-08-27T12:02:49.271Z,27.99
2022-08-27T12:03:49.453Z,27.88
2022-08-27T12:04:49.606Z,27.90
2022-08-27T12:05:49.288Z,27.96
2022-08-27T12:06:49.289Z,27.85
2022-08-27T12:07:49.299Z,27.82
2022-08-27T12:08:49.309Z,27.85
2022-08-27T12:09:49.307Z,27.90
2022-08-27T12:10:49.306Z,27.82
2022-08-27T12:11:51.485Z,27.78
2022-08-27T12:12:49.320Z,27.72
2022-08-27T12:13:49.319Z,27.75
2022-08-27T12:14:49.323Z,27.72
2022-08-27T12:15:49.332Z,27.70
2022-08-27T12:16:49.386Z,27.69
2022-08-27T12:17:49.341Z,27.66
2022-08-27T12:18:49.348Z,27.62
2022-08-27T12:19:49.349Z,27.51
2022-08-27T12:20:49.351Z,27.57
2022-08-27T12:21:49.360Z,27.55
2022-08-27T12:22:49.366Z,27.31
2022-08-27T12:23:49.370Z,27.41
2022-08-27T12:24:49.380Z,27.37
2022-08-27T12:25:49.376Z,27.34
2022-08-27T12:26:49.385Z,27.37
2022-08-27T12:27:49.388Z,27.34
2022-08-27T12:28:49.388Z,27.34
2022-08-27T12:29:49.394Z,27.32
2022-08-27T12:30:49.397Z,27.43
2022-08-27T12:31:49.463Z,27.44
2022-08-27T12:32:49.407Z,27.40
2022-08-27T12:33:49.413Z,27.49
2022-08-27T12:34:49.415Z,27.46
2022-08-27T12:35:49.419Z,27.57
2022-08-27T12:36:49.425Z,27.54
2022-08-27T12:37:49.445Z,27.54
2022-08-27T12:38:50.892Z,27.54
2022-08-27T12:39:49.436Z,27.54
2022-08-27T12:40:49.441Z,27.49
2022-08-27T12:41:49.449Z,27.55
2022-08-27T12:42:49.451Z,27.60
2022-08-27T12:43:49.457Z,27.77
2022-08-27T12:44:49.459Z,27.78
2022-08-27T12:45:49.463Z,27.90
2022-08-27T12:46:49.521Z,28.03
2022-08-27T12:47:50.957Z,28.00
2022-08-27T12:48:49.478Z,28.15
2022-08-27T12:49:53.808Z,28.19
2022-08-27T12:50:49.483Z,28.27
2022-08-27T12:51:49.490Z,28.31
2022-08-27T12:52:49.493Z,28.43